Time;durP1;ratioP1;P1;durP2;ratioP2;P2;SDS_P1;SDS_P2;PMS_P1;PMS_P2;Temp;Humidity;BMP_temperature;BMP_pressure;BME280_temperature;BME280_humidity;BME280_pressure;Samples;Min_cycle;Max_cycle;Signal;HPM_P1;HPM_P2
2023/07/12 00:00:20;;;;;;;1.40;1.00;;;21.40;81.20;;;;;;5048852;28;20024;-68
2023/07/12 00:02:46;;;;;;;1.65;1.00;;;21.40;81.20;;;;;;5050576;28;20379;-68
2023/07/12 00:05:11;;;;;;;1.60;1.00;;;21.30;81.10;;;;;;5048350;28;20025;-67
2023/07/12 00:07:37;;;;;;;2.63;1.15;;;21.30;81.30;;;;;;5054094;28;20089;-68
2023/07/12 00:10:11;;;;;;;2.03;1.00;;;21.20;81.50;;;;;;5051723;28;20029;-69
2023/07/12 00:12:36;;;;;;;2.58;1.40;;;21.20;81.50;;;;;;5049732;28;20037;-68
2023/07/12 00:15:02;;;;;;;2.15;1.17;;;21.20;81.40;;;;;;5048979;28;20029;-68
2023/07/12 00:17:28;;;;;;;2.03;1.20;;;21.20;81.60;;;;;;5051229;28;20025;-68
2023/07/12 00:19:53;;;;;;;2.60;1.20;;;21.20;81.70;;;;;;5048078;28;20497;-68
2023/07/12 00:22:19;;;;;;;1.40;1.10;;;21.20;82.00;;;;;;5049233;28;20468;-69
2023/07/12 00:24:45;;;;;;;1.10;1.00;;;21.10;82.00;;;;;;5051535;28;20151;-69
2023/07/12 00:27:10;;;;;;;1.80;1.30;;;21.10;82.00;;;;;;5048199;28;20089;-68
2023/07/12 00:29:36;;;;;;;1.98;1.35;;;21.00;82.40;;;;;;5049497;28;20033;-68
2023/07/12 00:32:01;;;;;;;2.78;1.17;;;21.00;82.40;;;;;;5052129;28;20033;-68
2023/07/12 00:34:27;;;;;;;1.90;1.05;;;21.00;82.20;;;;;;5049475;28;20128;-68
2023/07/12 00:36:52;;;;;;;1.60;1.27;;;21.00;82.40;;;;;;5051774;28;20033;-68
2023/07/12 00:39:18;;;;;;;2.85;1.20;;;20.90;82.70;;;;;;5068326;28;20071;-68
2023/07/12 00:42:31;;;;;;;2.10;1.45;;;20.80;82.90;;;;;;5049508;28;20025;-68
2023/07/12 00:44:57;;;;;;;2.30;1.30;;;20.70;83.20;;;;;;4974591;28;20668;-69
2023/07/12 00:47:24;;;;;;;2.92;1.27;;;20.70;83.10;;;;;;5036875;28;20041;-67
2023/07/12 00:49:51;;;;;;;3.05;1.48;;;20.60;83.60;;;;;;5052373;28;20032;-67
2023/07/12 00:52:18;;;;;;;3.53;1.40;;;20.60;83.70;;;;;;5060217;28;20068;-67
2023/07/12 00:55:01;;;;;;;3.05;1.80;;;20.60;83.70;;;;;;5052588;28;20021;-67
2023/07/12 00:57:30;;;;;;;2.83;1.52;;;20.50;83.60;;;;;;5052352;28;20043;-67
2023/07/12 01:00:04;;;;;;;2.55;1.35;;;20.50;83.60;;;;;;5052399;28;20108;-67
2023/07/12 01:02:30;;;;;;;1.98;1.20;;;20.50;83.50;;;;;;5056621;28;20098;-67
2023/07/12 01:04:59;;;;;;;2.00;1.40;;;20.50;83.50;;;;;;5052580;28;20112;-67
2023/07/12 01:07:27;;;;;;;4.05;1.60;;;20.50;83.50;;;;;;5057820;28;20093;-66
2023/07/12 01:09:52;;;;;;;3.50;1.63;;;20.40;83.60;;;;;;5051068;28;20021;-67
2023/07/12 01:12:18;;;;;;;2.47;1.60;;;20.50;83.50;;;;;;5051907;28;20514;-65
2023/07/12 01:14:45;;;;;;;3.53;1.80;;;20.40;83.40;;;;;;5034479;28;20552;-66
2023/07/12 01:17:10;;;;;;;3.17;1.67;;;20.40;83.60;;;;;;5051948;28;20033;-66
2023/07/12 01:19:38;;;;;;;4.68;2.00;;;20.30;84.10;;;;;;5051597;28;20511;-66
2023/07/12 01:22:04;;;;;;;4.40;1.92;;;20.20;84.60;;;;;;5034260;28;20025;-66
2023/07/12 01:24:31;;;;;;;4.22;1.80;;;20.20;84.90;;;;;;5050623;28;20025;-67
2023/07/12 01:27:00;;;;;;;3.63;1.73;;;20.10;85.10;;;;;;5052204;28;20109;-66
2023/07/12 01:29:27;;;;;;;3.40;1.70;;;20.10;85.30;;;;;;5052066;28;20032;-67
2023/07/12 01:31:53;;;;;;;4.28;1.73;;;20.00;85.40;;;;;;5052112;28;20028;-66
2023/07/12 01:34:19;;;;;;;3.50;1.70;;;19.90;85.60;;;;;;5055382;28;20028;-67
2023/07/12 01:36:45;;;;;;;3.22;1.90;;;19.90;85.50;;;;;;5051646;28;20029;-66
2023/07/12 01:39:12;;;;;;;4.95;1.98;;;19.90;85.60;;;;;;5057293;28;20021;-66
2023/07/12 01:41:38;;;;;;;3.30;2.00;;;19.90;85.60;;;;;;5056119;28;20028;-68
2023/07/12 01:44:04;;;;;;;3.45;1.70;;;19.80;85.70;;;;;;5058205;28;20032;-68
2023/07/12 01:46:30;;;;;;;3.53;1.80;;;19.80;85.80;;;;;;5053809;28;20044;-68
2023/07/12 01:48:56;;;;;;;4.40;2.03;;;19.80;85.80;;;;;;5053249;28;20033;-68
2023/07/12 01:51:22;;;;;;;6.03;2.03;;;19.70;86.20;;;;;;5052073;28;20025;-67
2023/07/12 01:53:48;;;;;;;4.65;2.22;;;19.70;86.30;;;;;;5051827;28;20032;-68
2023/07/12 01:56:15;;;;;;;5.90;1.95;;;19.60;86.80;;;;;;5052815;28;20033;-67
2023/07/12 01:58:41;;;;;;;5.93;2.08;;;19.60;86.90;;;;;;5061186;28;20035;-67
2023/07/12 02:01:06;;;;;;;4.45;2.10;;;19.60;86.70;;;;;;5021174;28;20013;-67
2023/07/12 02:03:32;;;;;;;6.03;2.00;;;19.60;86.70;;;;;;5051508;28;20025;-67
2023/07/12 02:05:58;;;;;;;7.57;2.28;;;19.50;86.60;;;;;;5051222;28;20025;-68
2023/07/12 02:08:24;;;;;;;4.32;1.88;;;19.60;86.70;;;;;;5053569;28;20097;-67
2023/07/12 02:10:50;;;;;;;4.10;1.60;;;19.60;86.40;;;;;;5053846;28;20033;-67
2023/07/12 02:13:16;;;;;;;3.47;1.60;;;19.60;86.30;;;;;;5055859;28;20047;-67
2023/07/12 02:15:43;;;;;;;4.47;1.63;;;19.60;86.30;;;;;;5048126;28;20045;-67
2023/07/12 02:18:10;;;;;;;4.75;1.83;;;19.60;86.10;;;;;;5032306;28;20411;-67
2023/07/12 02:20:36;;;;;;;6.25;2.20;;;19.60;86.00;;;;;;5047779;28;20032;-68
2023/07/12 02:23:02;;;;;;;6.28;1.85;;;19.60;86.20;;;;;;5048349;28;20025;-67
2023/07/12 02:25:28;;;;;;;3.42;1.70;;;19.70;86.30;;;;;;5051590;28;20064;-67
2023/07/12 02:27:53;;;;;;;3.92;1.80;;;19.70;86.00;;;;;;5050387;28;20053;-67
2023/07/12 02:30:22;;;;;;;4.47;1.90;;;19.70;86.20;;;;;;5049269;28;20090;-67
2023/07/12 02:32:49;;;;;;;4.35;1.70;;;19.70;86.00;;;;;;5049791;28;20111;-67
2023/07/12 02:35:16;;;;;;;4.25;1.90;;;19.70;86.00;;;;;;5051097;28;20078;-67
2023/07/12 02:37:42;;;;;;;4.80;2.00;;;19.60;86.20;;;;;;5049427;28;20490;-67
2023/07/12 02:40:09;;;;;;;5.53;2.00;;;19.60;86.40;;;;;;5048075;28;20021;-67
2023/07/12 02:42:35;;;;;;;3.95;2.22;;;19.60;86.40;;;;;;5049379;28;20021;-68
2023/07/12 02:45:00;;;;;;;5.70;2.20;;;19.50;86.60;;;;;;5051019;28;20487;-68
2023/07/12 02:47:26;;;;;;;4.53;2.10;;;19.50;86.70;;;;;;5049495;28;20083;-68
2023/07/12 02:49:52;;;;;;;4.55;2.03;;;19.50;86.80;;;;;;5047204;28;20033;-68
2023/07/12 02:52:17;;;;;;;5.03;2.30;;;19.50;86.80;;;;;;5049456;28;20100;-69
2023/07/12 02:54:43;;;;;;;3.42;2.00;;;19.40;86.90;;;;;;5048783;28;20039;-69
2023/07/12 02:57:10;;;;;;;3.47;1.70;;;19.40;87.10;;;;;;5049303;28;20025;-68
2023/07/12 02:59:37;;;;;;;4.45;1.85;;;19.30;87.00;;;;;;5048438;28;20021;-68
2023/07/12 03:02:04;;;;;;;4.88;2.17;;;19.30;87.10;;;;;;5049616;28;20152;-68
2023/07/12 03:04:30;;;;;;;3.78;1.80;;;19.30;87.00;;;;;;5049391;28;20029;-68
2023/07/12 03:06:55;;;;;;;3.90;1.90;;;19.20;87.30;;;;;;5048980;28;20542;-68
2023/07/12 03:09:21;;;;;;;4.72;1.50;;;19.20;87.40;;;;;;5049562;28;20495;-68
2023/07/12 03:11:48;;;;;;;3.15;1.40;;;19.20;87.90;;;;;;5055474;28;20033;-68
2023/07/12 03:14:18;;;;;;;3.72;1.88;;;19.20;87.00;;;;;;5049918;28;20071;-68
2023/07/12 03:16:43;;;;;;;4.07;2.00;;;19.20;86.90;;;;;;5030389;28;20472;-68
2023/07/12 03:19:09;;;;;;;5.35;1.90;;;19.10;87.20;;;;;;5049415;28;20106;-68
2023/07/12 03:21:35;;;;;;;4.82;1.80;;;19.10;87.50;;;;;;5058214;28;20083;-68
2023/07/12 03:24:01;;;;;;;3.30;1.73;;;19.00;87.50;;;;;;5049851;28;20033;-68
2023/07/12 03:26:27;;;;;;;4.78;2.03;;;19.00;87.60;;;;;;5054427;28;20448;-68
2023/07/12 03:28:53;;;;;;;5.18;2.00;;;19.00;87.80;;;;;;5057536;28;20055;-68
2023/07/12 03:31:18;;;;;;;2.72;1.60;;;19.00;88.10;;;;;;5051795;28;20111;-68
2023/07/12 03:33:48;;;;;;;5.07;1.85;;;19.00;88.20;;;;;;5049786;28;20483;-67
2023/07/12 03:36:14;;;;;;;8.10;2.67;;;19.00;88.30;;;;;;5051636;28;20029;-67
2023/07/12 03:38:40;;;;;;;3.97;1.70;;;19.00;88.30;;;;;;5049550;28;20025;-67
2023/07/12 03:41:08;;;;;;;3.65;1.90;;;18.90;88.60;;;;;;5054812;28;20658;-68
2023/07/12 03:43:34;;;;;;;5.15;2.00;;;18.90;88.70;;;;;;5049868;28;20027;-68
2023/07/12 03:46:00;;;;;;;4.72;2.13;;;18.80;89.00;;;;;;5049607;28;20392;-68
2023/07/12 03:48:26;;;;;;;5.03;2.08;;;18.80;89.20;;;;;;5054022;28;20429;-68
2023/07/12 03:50:55;;;;;;;4.88;2.13;;;18.80;89.30;;;;;;5051051;28;20029;-68
2023/07/12 03:53:21;;;;;;;5.72;2.30;;;18.80;89.30;;;;;;5057455;28;20389;-68
2023/07/12 03:55:48;;;;;;;6.30;2.83;;;18.80;89.30;;;;;;5049951;28;20025;-68
2023/07/12 03:58:17;;;;;;;5.75;2.90;;;18.70;89.20;;;;;;5047731;28;20021;-68
2023/07/12 04:00:45;;;;;;;4.78;2.30;;;18.70;89.50;;;;;;5045227;28;20017;-68
2023/07/12 04:03:11;;;;;;;4.43;2.30;;;18.70;89.60;;;;;;5059869;28;20032;-68
2023/07/12 04:05:38;;;;;;;6.85;2.90;;;18.60;89.60;;;;;;5051925;28;20029;-68
2023/07/12 04:08:04;;;;;;;4.47;2.47;;;18.70;89.60;;;;;;5049408;28;20060;-68
2023/07/12 04:10:31;;;;;;;5.40;2.35;;;18.70;89.60;;;;;;5048327;28;20495;-68
2023/07/12 04:12:57;;;;;;;5.70;2.50;;;18.70;89.60;;;;;;5052801;28;20021;-67
2023/07/12 04:15:23;;;;;;;5.85;2.72;;;18.70;89.50;;;;;;5052263;28;20032;-67
2023/07/12 04:17:48;;;;;;;4.85;2.83;;;18.70;89.40;;;;;;5062126;28;20526;-67
2023/07/12 04:20:14;;;;;;;6.35;2.30;;;18.70;90.10;;;;;;5052114;28;20104;-67
2023/07/12 04:22:40;;;;;;;4.90;3.05;;;18.70;89.50;;;;;;5053741;28;20040;-67
2023/07/12 04:25:09;;;;;;;5.75;2.70;;;18.60;89.80;;;;;;5052283;28;20025;-67
2023/07/12 04:27:39;;;;;;;5.25;2.92;;;18.70;89.70;;;;;;5047547;28;20039;-67
2023/07/12 04:30:07;;;;;;;5.78;3.60;;;18.70;89.60;;;;;;5053606;28;20063;-67
2023/07/12 04:32:33;;;;;;;8.75;4.80;;;18.70;89.40;;;;;;5066870;28;20035;-68
2023/07/12 04:34:59;;;;;;;6.25;3.65;;;18.60;89.40;;;;;;5049066;28;20029;-68
2023/07/12 04:37:24;;;;;;;6.43;3.47;;;18.60;89.40;;;;;;5058234;28;20468;-67
2023/07/12 04:39:51;;;;;;;5.93;3.42;;;18.60;89.40;;;;;;5053183;28;20028;-66
2023/07/12 04:42:16;;;;;;;7.72;4.22;;;18.60;89.20;;;;;;5053242;28;20013;-67
2023/07/12 04:44:42;;;;;;;7.88;5.00;;;18.70;89.40;;;;;;5074123;28;20040;-66
2023/07/12 04:47:08;;;;;;;6.47;4.53;;;18.80;89.30;;;;;;5053094;28;20102;-67
2023/07/12 04:49:33;;;;;;;8.07;5.28;;;18.80;89.10;;;;;;5052621;28;20033;-67
2023/07/12 04:51:59;;;;;;;8.50;6.00;;;18.70;89.00;;;;;;5058204;28;20036;-67
2023/07/12 04:54:25;;;;;;;8.77;6.10;;;18.80;89.10;;;;;;5050868;28;20492;-67
2023/07/12 04:56:51;;;;;;;7.75;5.90;;;18.80;88.80;;;;;;5058281;28;20033;-67
2023/07/12 04:59:18;;;;;;;6.93;4.97;;;18.80;88.70;;;;;;5055295;28;20039;-67
2023/07/12 05:01:44;;;;;;;6.70;5.55;;;18.90;88.80;;;;;;5055822;28;20029;-68
2023/07/12 05:04:10;;;;;;;9.02;6.22;;;18.90;88.50;;;;;;5050645;28;20013;-67
2023/07/12 05:06:35;;;;;;;10.32;6.63;;;19.00;88.40;;;;;;5038178;28;20025;-67
2023/07/12 05:09:01;;;;;;;9.77;6.75;;;19.00;88.30;;;;;;5056734;28;20130;-67
2023/07/12 05:11:26;;;;;;;9.88;6.18;;;19.10;88.20;;;;;;5047519;28;20037;-68
2023/07/12 05:13:52;;;;;;;10.77;6.70;;;19.10;88.10;;;;;;5056683;28;20025;-68
2023/07/12 05:16:18;;;;;;;9.50;6.68;;;19.30;88.00;;;;;;5052952;28;20049;-67
2023/07/12 05:18:43;;;;;;;9.73;5.90;;;19.40;87.60;;;;;;5051313;28;20112;-67
2023/07/12 05:21:09;;;;;;;7.43;5.85;;;19.40;87.10;;;;;;5049940;28;20029;-69
2023/07/12 05:23:36;;;;;;;8.50;6.25;;;19.50;87.10;;;;;;5061227;28;20020;-67
2023/07/12 05:26:02;;;;;;;9.18;6.15;;;19.60;86.70;;;;;;5052510;28;20096;-68
2023/07/12 05:28:28;;;;;;;10.35;7.60;;;19.60;86.40;;;;;;5056241;28;20499;-67
2023/07/12 05:30:53;;;;;;;10.32;7.00;;;19.60;86.10;;;;;;5052121;28;20098;-67
2023/07/12 05:33:19;;;;;;;8.02;6.85;;;19.50;86.00;;;;;;5052692;28;20638;-67
2023/07/12 05:35:46;;;;;;;9.20;7.05;;;19.40;86.20;;;;;;5050720;28;20033;-67
2023/07/12 05:38:12;;;;;;;10.15;6.97;;;19.30;86.50;;;;;;5051444;28;20025;-67
2023/07/12 05:40:38;;;;;;;11.77;8.35;;;19.30;86.60;;;;;;5056183;28;20448;-67
2023/07/12 05:43:03;;;;;;;11.88;7.18;;;19.20;86.70;;;;;;5054895;28;20018;-67
2023/07/12 05:45:29;;;;;;;9.00;6.05;;;19.20;87.00;;;;;;5043609;28;20029;-66
2023/07/12 05:47:55;;;;;;;9.57;7.45;;;19.20;87.00;;;;;;5040749;28;20029;-67
2023/07/12 05:50:21;;;;;;;9.65;6.05;;;19.30;86.90;;;;;;5046471;28;20052;-68
2023/07/12 05:52:47;;;;;;;9.38;6.20;;;19.30;86.70;;;;;;5041931;28;20463;-67
2023/07/12 05:55:17;;;;;;;10.48;6.95;;;19.30;86.80;;;;;;5037940;28;20055;-68
2023/07/12 05:57:44;;;;;;;8.63;5.32;;;19.30;86.60;;;;;;5045914;28;20112;-67
2023/07/12 06:00:11;;;;;;;9.07;5.50;;;19.30;86.50;;;;;;5045888;28;20018;-68
2023/07/12 06:02:38;;;;;;;7.70;5.00;;;19.30;86.30;;;;;;5042154;28;20547;-67
2023/07/12 06:05:05;;;;;;;9.60;5.53;;;19.60;86.00;;;;;;5044372;28;20044;-67
2023/07/12 06:07:31;;;;;;;9.13;5.45;;;19.40;85.60;;;;;;5051709;28;20033;-67
2023/07/12 06:09:56;;;;;;;8.48;4.88;;;19.30;85.60;;;;;;5048138;28;20496;-66
2023/07/12 06:12:23;;;;;;;8.82;4.30;;;19.30;85.80;;;;;;5059217;28;20036;-67
2023/07/12 06:14:49;;;;;;;7.97;4.07;;;19.20;86.00;;;;;;5059871;28;20025;-67
2023/07/12 06:17:14;;;;;;;8.55;4.75;;;19.20;86.20;;;;;;5057161;28;20028;-67
2023/07/12 06:19:40;;;;;;;7.18;4.55;;;19.10;86.30;;;;;;5051163;28;20021;-67
2023/07/12 06:22:06;;;;;;;8.60;4.85;;;19.10;86.20;;;;;;5055809;28;20027;-67
2023/07/12 06:24:31;;;;;;;7.90;4.25;;;19.10;86.40;;;;;;5070820;28;20023;-67
2023/07/12 06:26:57;;;;;;;7.55;4.50;;;19.10;86.50;;;;;;5051918;28;20035;-67
2023/07/12 06:29:24;;;;;;;10.80;5.40;;;19.10;86.50;;;;;;5051212;28;20120;-67
2023/07/12 06:31:50;;;;;;;9.50;5.00;;;19.30;86.40;;;;;;5051429;28;20033;-67
2023/07/12 06:34:16;;;;;;;6.97;3.60;;;19.30;85.90;;;;;;5052774;28;20527;-67
2023/07/12 06:36:42;;;;;;;8.25;4.00;;;19.30;85.60;;;;;;5052880;28;20063;-67
2023/07/12 06:39:08;;;;;;;8.98;4.10;;;19.30;85.60;;;;;;5061672;28;20092;-66
2023/07/12 06:41:34;;;;;;;7.82;5.10;;;19.30;85.60;;;;;;5050621;28;20136;-68
2023/07/12 06:44:00;;;;;;;10.00;4.63;;;19.40;85.70;;;;;;5032346;28;20104;-68
2023/07/12 06:46:26;;;;;;;7.82;3.78;;;19.50;85.60;;;;;;5058102;28;20021;-68
2023/07/12 06:48:51;;;;;;;7.03;3.40;;;19.50;85.10;;;;;;5048829;28;20021;-67
2023/07/12 06:51:17;;;;;;;7.05;4.05;;;19.50;84.90;;;;;;5050513;28;20438;-67
2023/07/12 06:53:43;;;;;;;6.65;3.67;;;19.60;84.80;;;;;;5049517;28;20027;-67
2023/07/12 06:56:08;;;;;;;5.93;3.67;;;19.70;84.60;;;;;;5046413;28;20072;-67
2023/07/12 06:58:34;;;;;;;9.80;4.32;;;19.60;84.40;;;;;;5049753;28;20031;-67
2023/07/12 07:01:00;;;;;;;8.13;4.25;;;19.50;84.50;;;;;;5043400;28;20037;-67
2023/07/12 07:03:26;;;;;;;7.15;3.75;;;19.50;84.80;;;;;;5045085;28;20021;-67
2023/07/12 07:05:51;;;;;;;6.15;3.42;;;19.50;84.80;;;;;;5046879;28;20017;-67
2023/07/12 07:08:19;;;;;;;7.72;4.03;;;19.40;84.80;;;;;;5047615;28;20116;-68
2023/07/12 07:10:49;;;;;;;6.47;3.67;;;19.40;85.10;;;;;;5048150;28;20137;-68
2023/07/12 07:13:15;;;;;;;5.80;3.80;;;19.40;85.20;;;;;;5045750;28;20059;-68
2023/07/12 07:15:43;;;;;;;5.70;3.40;;;19.40;85.40;;;;;;5048115;28;20053;-67
2023/07/12 07:18:10;;;;;;;6.82;3.80;;;19.50;85.20;;;;;;5048227;28;20025;-67
2023/07/12 07:20:35;;;;;;;11.98;5.05;;;19.60;84.90;;;;;;5048845;28;20660;-67
2023/07/12 07:23:01;;;;;;;7.28;4.07;;;19.60;84.60;;;;;;5048840;28;20096;-67
2023/07/12 07:25:28;;;;;;;9.77;4.88;;;19.50;84.60;;;;;;5049878;28;20028;-68
2023/07/12 07:27:54;;;;;;;8.32;4.00;;;19.60;84.60;;;;;;5049843;28;20028;-67
2023/07/12 07:30:20;;;;;;;8.55;3.80;;;19.70;84.60;;;;;;5046376;28;20416;-68
2023/07/12 07:32:46;;;;;;;8.20;4.45;;;19.80;84.30;;;;;;5049444;28;20029;-67
2023/07/12 07:35:12;;;;;;;9.02;4.28;;;19.80;84.00;;;;;;5052445;28;20050;-67
2023/07/12 07:37:37;;;;;;;9.55;4.70;;;19.80;83.90;;;;;;5049777;28;20021;-67
2023/07/12 07:40:04;;;;;;;8.23;4.38;;;19.80;83.70;;;;;;5050133;28;20696;-67
2023/07/12 07:42:29;;;;;;;7.88;4.55;;;19.70;83.60;;;;;;5046893;28;20075;-67
2023/07/12 07:44:55;;;;;;;7.22;4.60;;;19.70;83.70;;;;;;5060766;28;20650;-67
2023/07/12 07:47:21;;;;;;;8.32;4.68;;;19.70;83.70;;;;;;5048310;28;20387;-68
2023/07/12 07:49:46;;;;;;;9.68;5.25;;;19.70;83.60;;;;;;5055693;28;20351;-68
2023/07/12 07:52:12;;;;;;;8.32;4.35;;;19.80;83.90;;;;;;5043523;28;20112;-67
2023/07/12 07:54:39;;;;;;;9.57;3.92;;;19.80;83.90;;;;;;5052349;28;20456;-67
2023/07/12 07:57:06;;;;;;;7.13;4.20;;;19.70;83.80;;;;;;5048741;28;20029;-67
2023/07/12 07:59:31;;;;;;;7.80;4.00;;;19.80;83.90;;;;;;5060121;28;20092;-68
2023/07/12 08:01:58;;;;;;;6.63;3.55;;;19.80;83.80;;;;;;5050688;28;20117;-67
2023/07/12 08:04:24;;;;;;;7.72;4.32;;;19.90;83.80;;;;;;5055544;28;20495;-67
2023/07/12 08:06:50;;;;;;;6.13;3.78;;;19.90;83.30;;;;;;5049043;28;20040;-68
2023/07/12 08:09:16;;;;;;;9.30;4.63;;;20.00;83.20;;;;;;5044311;28;20448;-67
2023/07/12 08:11:42;;;;;;;8.90;3.92;;;20.00;83.00;;;;;;5052949;28;20075;-68
2023/07/12 08:14:08;;;;;;;6.25;3.25;;;20.00;82.90;;;;;;5048704;28;20032;-67
2023/07/12 08:16:35;;;;;;;7.88;3.35;;;20.10;82.80;;;;;;5048379;28;20017;-68
2023/07/12 08:19:02;;;;;;;9.00;4.25;;;20.20;82.70;;;;;;5030797;28;20026;-68
2023/07/12 08:21:28;;;;;;;6.95;3.30;;;20.30;82.30;;;;;;5045828;28;20021;-68
2023/07/12 08:23:54;;;;;;;8.40;4.00;;;20.20;81.70;;;;;;5049845;28;20031;-67
2023/07/12 08:26:20;;;;;;;8.48;3.63;;;20.20;81.60;;;;;;5048919;28;20442;-68
2023/07/12 08:28:46;;;;;;;5.05;3.13;;;20.20;81.60;;;;;;5046994;28;20035;-67
2023/07/12 08:31:12;;;;;;;5.30;3.25;;;20.30;81.70;;;;;;5040268;28;20017;-68
2023/07/12 08:33:37;;;;;;;9.85;3.97;;;20.40;81.50;;;;;;5045142;28;20090;-68
2023/07/12 08:36:03;;;;;;;8.20;3.58;;;20.50;81.20;;;;;;5049125;28;20107;-67
2023/07/12 08:38:31;;;;;;;8.88;4.40;;;20.50;80.90;;;;;;5047460;28;20029;-67
2023/07/12 08:40:58;;;;;;;8.27;3.80;;;20.60;80.70;;;;;;5044961;28;20029;-68
2023/07/12 08:43:29;;;;;;;10.27;3.50;;;20.60;80.20;;;;;;5049457;28;20028;-67
2023/07/12 08:46:11;;;;;;;7.63;3.55;;;20.80;79.80;;;;;;5045319;28;20062;-67
2023/07/12 08:48:37;;;;;;;8.20;3.95;;;21.00;79.60;;;;;;5045401;28;20395;-67
2023/07/12 08:51:13;;;;;;;10.52;5.22;;;21.20;79.10;;;;;;5048881;28;20027;-67
2023/07/12 08:53:41;;;;;;;7.68;3.53;;;21.40;78.00;;;;;;5044845;28;20054;-67
2023/07/12 08:56:14;;;;;;;7.78;3.50;;;21.40;77.60;;;;;;5044219;28;20442;-67
2023/07/12 08:58:44;;;;;;;8.85;4.00;;;21.40;77.50;;;;;;5048183;28;20104;-67
2023/07/12 09:01:25;;;;;;;8.80;3.83;;;21.30;77.00;;;;;;5049578;28;20029;-67
2023/07/12 09:03:51;;;;;;;10.00;3.95;;;21.30;77.20;;;;;;5047218;28;20025;-67
2023/07/12 09:06:17;;;;;;;7.35;2.67;;;21.30;76.80;;;;;;5048906;28;20021;-67
2023/07/12 09:08:50;;;;;;;7.18;3.28;;;21.40;76.70;;;;;;5048376;28;20053;-67
2023/07/12 09:11:26;;;;;;;5.30;2.78;;;21.60;76.00;;;;;;5047757;28;20029;-68
2023/07/12 09:13:53;;;;;;;7.32;2.90;;;21.60;75.50;;;;;;5046579;28;20072;-67
2023/07/12 09:16:35;;;;;;;8.43;3.10;;;21.80;75.20;;;;;;5048936;28;20024;-67
2023/07/12 09:19:20;;;;;;;6.70;3.55;;;21.90;74.40;;;;;;5052927;28;20052;-68
2023/07/12 09:21:49;;;;;;;5.45;3.15;;;22.00;73.90;;;;;;5041203;28;20021;-67
2023/07/12 09:24:24;;;;;;;6.07;3.40;;;22.10;73.80;;;;;;5050926;28;20032;-67
2023/07/12 09:26:50;;;;;;;8.73;3.83;;;22.20;73.70;;;;;;5060581;28;20031;-67
2023/07/12 09:29:20;;;;;;;6.70;3.10;;;22.20;72.10;;;;;;5044032;28;20029;-68
2023/07/12 09:32:40;;;;;;;9.00;3.60;;;22.00;72.00;;;;;;5050070;28;20112;-67
2023/07/12 09:35:45;;;;;;;8.23;2.95;;;22.10;71.90;;;;;;5015082;28;20044;-67
2023/07/12 09:38:22;;;;;;;8.25;3.47;;;22.30;71.40;;;;;;4960233;28;20037;-67
2023/07/12 09:40:51;;;;;;;7.50;3.17;;;22.20;70.90;;;;;;4964496;28;21892;-67
2023/07/12 09:43:16;;;;;;;5.03;3.15;;;22.20;71.00;;;;;;5015240;28;20475;-67
2023/07/12 09:46:04;;;;;;;6.60;3.03;;;22.40;71.00;;;;;;5051401;28;20028;-68
2023/07/12 09:48:45;;;;;;;8.93;3.15;;;22.50;71.00;;;;;;5033289;28;20350;-67
2023/07/12 09:51:33;;;;;;;6.53;2.53;;;22.60;70.70;;;;;;5032660;28;20021;-68
2023/07/12 09:54:20;;;;;;;6.25;3.00;;;22.90;70.70;;;;;;5048376;28;20533;-67
2023/07/12 09:56:53;;;;;;;7.45;2.80;;;23.00;69.50;;;;;;5051350;28;20017;-68
2023/07/12 09:59:47;;;;;;;7.97;2.90;;;23.00;68.80;;;;;;5035023;28;20029;-67
2023/07/12 10:02:42;;;;;;;4.57;2.30;;;23.10;68.90;;;;;;5048879;28;20445;-67
2023/07/12 10:05:11;;;;;;;5.75;2.83;;;23.20;68.90;;;;;;5045433;28;20032;-67
2023/07/12 10:08:01;;;;;;;7.30;2.80;;;23.50;68.00;;;;;;5053271;28;20103;-67
2023/07/12 10:10:51;;;;;;;7.30;2.70;;;23.60;66.70;;;;;;5046842;28;20068;-67
2023/07/12 10:13:31;;;;;;;6.22;2.08;;;23.70;66.60;;;;;;5054841;28;20024;-68
2023/07/12 10:15:58;;;;;;;5.72;2.33;;;23.70;65.50;;;;;;5051606;28;20028;-68
2023/07/12 10:18:32;;;;;;;6.03;2.55;;;23.70;65.10;;;;;;5050308;28;20030;-68
2023/07/12 10:20:57;;;;;;;5.50;2.10;;;23.70;64.50;;;;;;5048642;28;20029;-68
2023/07/12 10:23:27;;;;;;;5.15;1.98;;;23.50;64.70;;;;;;5049876;28;20466;-67
2023/07/12 10:26:03;;;;;;;3.90;2.20;;;23.60;64.60;;;;;;5049686;28;20396;-67
2023/07/12 10:29:03;;;;;;;3.95;2.00;;;23.60;64.40;;;;;;5045154;28;20023;-68
2023/07/12 10:31:51;;;;;;;6.95;2.60;;;23.50;64.70;;;;;;5057398;28;20052;-67
2023/07/12 10:34:37;;;;;;;5.82;2.20;;;23.50;64.70;;;;;;5052047;28;20025;-67
2023/07/12 10:37:10;;;;;;;4.60;2.30;;;23.50;65.00;;;;;;5051537;28;20079;-68
2023/07/12 10:39:36;;;;;;;4.07;2.22;;;23.50;64.80;;;;;;5048685;28;20048;-67
2023/07/12 10:42:18;;;;;;;7.60;2.60;;;23.40;65.20;;;;;;5049015;28;20091;-68
2023/07/12 10:44:50;;;;;;;7.50;2.80;;;23.10;66.80;;;;;;5047152;28;20469;-67
2023/07/12 10:47:18;;;;;;;6.70;2.72;;;22.70;68.90;;;;;;5052221;28;20025;-67
2023/07/12 10:49:56;;;;;;;7.10;2.72;;;22.50;70.30;;;;;;5050148;28;20108;-67
2023/07/12 10:52:31;;;;;;;5.68;2.50;;;22.30;71.20;;;;;;5048028;28;20029;-69
2023/07/12 10:55:06;;;;;;;4.93;2.25;;;22.20;72.30;;;;;;5055353;28;20036;-69
2023/07/12 10:57:46;;;;;;;5.03;1.95;;;22.20;73.20;;;;;;5029615;28;20537;-68
2023/07/12 11:00:20;;;;;;;4.97;1.90;;;22.20;73.30;;;;;;5048965;28;20056;-68
2023/07/12 11:02:56;;;;;;;6.22;2.22;;;22.10;73.40;;;;;;5047068;28;20368;-67
2023/07/12 11:05:58;;;;;;;6.47;2.40;;;22.10;74.00;;;;;;5050058;28;20032;-67
2023/07/12 11:08:53;;;;;;;6.65;2.15;;;22.10;73.70;;;;;;5052564;28;20107;-68
2023/07/12 11:11:27;;;;;;;4.47;1.90;;;22.10;73.80;;;;;;5048590;28;20029;-68
2023/07/12 11:13:59;;;;;;;5.88;2.03;;;22.20;74.60;;;;;;5048969;28;20036;-68
2023/07/12 11:16:26;;;;;;;5.95;1.70;;;22.30;73.80;;;;;;5051266;28;20028;-67
2023/07/12 11:18:54;;;;;;;2.55;1.52;;;22.60;73.90;;;;;;5048689;28;20025;-68
2023/07/12 11:21:45;;;;;;;5.70;1.75;;;22.70;73.20;;;;;;5043427;28;20220;-68
2023/07/12 11:24:26;;;;;;;5.53;1.97;;;22.70;72.10;;;;;;5032298;28;20051;-68
2023/07/12 11:27:00;;;;;;;4.63;1.65;;;22.70;71.70;;;;;;5047737;28;20036;-68
2023/07/12 11:29:30;;;;;;;5.47;2.20;;;22.90;71.70;;;;;;5053906;28;20021;-68
2023/07/12 11:32:19;;;;;;;4.68;1.80;;;23.00;71.40;;;;;;5044369;28;20029;-68
2023/07/12 11:34:46;;;;;;;7.78;2.22;;;23.10;70.80;;;;;;5043633;28;20028;-68
2023/07/12 11:37:36;;;;;;;6.07;2.40;;;23.30;70.60;;;;;;5049025;28;20044;-68
2023/07/12 11:40:10;;;;;;;4.65;2.08;;;23.40;69.30;;;;;;5047043;28;20090;-68
2023/07/12 11:42:35;;;;;;;4.43;2.10;;;23.40;68.50;;;;;;5047479;28;20052;-67
2023/07/12 11:45:03;;;;;;;5.15;2.20;;;23.50;67.50;;;;;;5047881;28;20698;-68
2023/07/12 11:47:30;;;;;;;5.47;1.90;;;23.50;66.80;;;;;;5052105;28;20116;-67
2023/07/12 11:49:59;;;;;;;6.47;2.03;;;23.40;65.60;;;;;;5049527;28;20044;-68
2023/07/12 11:52:27;;;;;;;4.95;1.70;;;23.40;65.20;;;;;;5044460;28;20078;-67
2023/07/12 11:54:53;;;;;;;3.60;1.80;;;23.40;65.00;;;;;;5046368;28;20032;-68
2023/07/12 11:57:20;;;;;;;4.28;1.88;;;23.50;65.20;;;;;;5049316;28;20040;-68
2023/07/12 11:59:48;;;;;;;4.78;1.65;;;23.50;64.60;;;;;;5048634;28;20029;-67
2023/07/12 12:02:19;;;;;;;4.68;1.73;;;23.50;63.80;;;;;;5044799;28;20033;-68
2023/07/12 12:04:48;;;;;;;3.65;1.73;;;23.40;63.00;;;;;;5040567;28;20498;-68
2023/07/12 12:07:20;;;;;;;3.35;1.63;;;23.30;62.20;;;;;;5042913;28;20107;-68
2023/07/12 12:09:47;;;;;;;3.53;1.50;;;23.50;62.20;;;;;;5028037;28;20348;-68
2023/07/12 12:12:19;;;;;;;5.05;1.60;;;23.70;62.60;;;;;;5044135;28;20036;-68
2023/07/12 12:14:47;;;;;;;4.32;1.48;;;23.90;61.70;;;;;;5043009;28;20033;-67
2023/07/12 12:17:26;;;;;;;3.20;1.58;;;24.20;61.40;;;;;;5044759;28;20033;-68
2023/07/12 12:20:04;;;;;;;4.57;1.38;;;24.50;61.30;;;;;;5043064;28;20492;-67
2023/07/12 12:22:29;;;;;;;5.22;1.50;;;24.80;60.60;;;;;;5047093;28;20016;-68
2023/07/12 12:24:56;;;;;;;4.75;1.40;;;24.90;59.80;;;;;;5042998;28;20514;-67
2023/07/12 12:27:35;;;;;;;5.45;1.67;;;25.00;59.20;;;;;;5049324;28;20040;-67
2023/07/12 12:30:14;;;;;;;6.18;1.70;;;25.10;58.30;;;;;;5047087;28;20036;-68
2023/07/12 12:32:39;;;;;;;4.90;1.60;;;25.30;57.10;;;;;;5037616;28;20059;-68
2023/07/12 12:35:11;;;;;;;4.88;1.50;;;25.20;56.00;;;;;;5051976;28;20284;-68
2023/07/12 12:37:37;;;;;;;;;;;25.30;56.10;;;;;;5051317;28;20044;-67
2023/07/12 12:40:06;;;;;;;3.70;1.50;;;25.30;56.00;;;;;;5054639;28;20613;-68
2023/07/12 12:42:32;;;;;;;4.95;1.70;;;25.30;55.90;;;;;;5053133;28;20032;-68
2023/07/12 12:44:59;;;;;;;3.75;1.50;;;25.50;55.90;;;;;;5049768;28;20369;-68
2023/07/12 12:47:30;;;;;;;4.57;1.73;;;25.40;55.50;;;;;;5053103;28;20452;-67
2023/07/12 12:49:57;;;;;;;1.92;1.17;;;25.40;55.30;;;;;;5051270;28;20059;-68
2023/07/12 12:52:35;;;;;;;3.38;1.30;;;25.50;55.80;;;;;;5051418;28;20017;-68
2023/07/12 12:55:03;;;;;;;3.75;1.27;;;25.60;55.70;;;;;;5049545;28;20032;-68